Blast from the Past Half and 1/2*

Saturday, January 30, 2016 10:00 AM (GMT-8) - Final results

Race info
Sport: Running - trail
Location: Issaquah, WA, United States
Start type: Manual wave start
Wave grouping: By distance
Racers: 222
Timed on: iPad
Timed with: Webscorer PRO 2.1
Updated: Thursday, November 8, 2018 4:41 PM (GMT-8)

Contact organizer

Use this form to send an email to the organizer.

Your name
Your email address
Confirm email address
Message to organizer
Send

Blast from the Past Half and 1/2*

  • 1/2 of Half - Overall
Place Bib Racer name Affiliation Category Age Gender Finish time
131Egbert, TravisTempe, AZ 20-2926M 51:50.3--100%38.22%37.74%10:30:01.4
257Juhl, TorbenSeattle, WA 40-4949M 52:57.4+1:07.1+2.16%97.89%36.89%36.40%10:30:01.4
336Farrell, KerryFederal Way, WA 50-5955M 53:04.1+1:13.8+2.37%97.68%36.76%36.26%10:30:01.4
488Rembac, RossIssaquah, WA 40-4949M 53:09.9+1:19.6+2.56%97.50%36.64%36.15%10:30:01.4
552Heaps, SteveFall City, WA 50-5951M 53:53.4+2:03.1+3.96%96.19%35.78%35.28%10:30:01.4
696Stueber, RyanAuburn, WA 30-3935M 54:24.0+2:33.7+4.94%95.29%35.17%34.66%10:30:01.4
728Davidson, Patricia 30-3933F 55:49.2+3:58.9+7.68%92.87%33.48%32.96%10:30:01.4
811Brandt, JeffLake Tapps, WA 50-5951M 56:51.1+5:00.8+9.67%91.18%32.25%31.72%10:30:01.4
963Koster, BrandSeattle, WA 20-2925M 56:55.7+5:05.4+9.82%91.06%32.16%31.63%10:30:01.4
1081O'neill, MikeBrooklyn, NY 50-5952M 57:12.8+5:22.5+10.37%90.61%31.82%31.28%10:30:01.4
1192Schulte, SteveSeattle, WA 40-4942M 58:55.0+7:04.7+13.65%87.99%29.79%29.24%10:30:01.4
1248Grubb, JaySeattle, WA 50-5955M 59:28.6+7:38.3+14.73%87.16%29.12%28.57%10:30:01.4
13121Dena Becker 40-4941F 59:30.3+7:40.0+14.79%87.12%29.09%28.53%10:30:01.4
14114Wetzel, CourtneyPuyallup, WA 20-2926F 59:30.7+7:40.4+14.80%87.11%29.08%28.52%10:30:01.4
15105Van Amen, DarrellBellevue, WA 50-5950M 1:00:34.0+8:43.7+16.84%85.59%27.82%27.26%10:30:01.4
1682Parkison, BenRedmond, WA 30-3933M 1:01:49.9+9:59.6+19.28%83.84%26.32%25.74%10:30:01.4
17195Mills, GregoryBellevue, WA 50-5953M 1:02:10.0+10:19.7+19.92%83.39%25.92%25.34%10:30:01.4
181Anderson, MatthewSeattle, WA 30-3935M 1:02:56.9+11:06.6+21.43%82.35%24.99%24.40%10:30:01.4
19218Serbousek, LindsayBremerton, WA 30-3930F 1:03:00.0+11:09.7+21.53%82.28%24.92%24.33%10:30:01.4
2079Morrissey, LauraCovington, WA 30-3936F 1:03:49.1+11:58.8+23.11%81.23%23.95%23.35%10:30:01.4
2172Mckillop, EllaIssaquah, WA 0-1914F 1:04:44.7+12:54.4+24.90%80.07%22.84%22.24%10:30:01.4
22120Emma Jordan 0-1914F 1:04:50.6+13:00.3+25.09%79.94%22.73%22.12%10:30:01.4
2338Fowler, MelissaSeattle, WA 30-3937F 1:05:40.2+13:49.9+26.68%78.94%21.74%21.13%10:30:01.4
2495Smith, MichaelDes Moines, WA 50-5956M 1:06:14.4+14:24.1+27.78%78.26%21.06%20.44%10:30:01.4
2594Shivers, SteveSteve Shivers, WA 40-4946M 1:07:25.3+15:35.0+30.06%76.89%19.65%19.02%10:30:01.4
26100Tarnacha, Ankur 30-3937F 1:07:34.6+15:44.3+30.36%76.71%19.47%18.84%10:30:01.4
2760Kent, KevinDes Moines, WA 50-5950M 1:08:31.4+16:41.1+32.19%75.65%18.34%17.70%10:30:01.4
2814Cantrall, LoganSammamish, WA 0-1910M 1:09:01.3+17:11.0+33.15%75.10%17.75%17.10%10:30:01.4
2962Knoy, JustinSeattle, WA 30-3934M 1:09:07.8+17:17.5+33.36%74.99%17.62%16.97%10:30:01.4
3047Graham, DanKenmore, WA 40-4945M 1:09:09.7+17:19.4+33.42%74.95%17.58%16.93%10:30:01.4
3110Boutillier, WilfriedSeattle, WA 40-4940M 1:09:14.8+17:24.5+33.58%74.86%17.48%16.83%10:30:01.4
3218Carlson, LynnSeattle, WA 30-3931F 1:09:58.3+18:08.0+34.98%74.08%16.62%15.96%10:30:01.4
33115Wilson, PaigeSeattle, WA 20-2926F 1:10:01.9+18:11.6+35.10%74.02%16.54%15.89%10:30:01.4
3467Lee, AllisonSeattle, WA 30-3932F 1:10:43.0+18:52.7+36.42%73.30%15.73%15.07%10:30:01.4
3561Keresteci, ErcenkRedmond, WA 40-4948M 1:11:10.8+19:20.5+37.31%72.83%15.18%14.51%10:30:01.4
363Baker, AileenSeattle, WA 30-3931F 1:11:17.8+19:27.5+37.54%72.71%15.04%14.37%10:30:01.4
3773Mcnamara, LoganSeattle, WA 20-2924F 1:11:20.7+19:30.4+37.63%72.66%14.98%14.31%10:30:01.4
3835Farkas, RachelSeattle 30-3937F 1:11:37.0+19:46.7+38.15%72.38%14.66%13.99%10:30:01.4
39111Weiss, GeorgeBellevue, WA 60-6965M 1:12:22.7+20:32.4+39.62%71.62%13.75%13.07%10:30:01.4
4030Echols, RosalindSeattle, WA 30-3933F 1:12:37.8+20:47.5+40.11%71.37%13.45%12.77%10:30:01.4
4168MANUM, MARKSeattle, WA 50-5950M 1:13:18.9+21:28.6+41.43%70.71%12.63%11.95%10:30:01.4
429Bosket, KenArlington, WA 60-6960M 1:13:24.8+21:34.5+41.62%70.61%12.51%11.83%10:30:01.4
4393Shivers, MindyBellevue, WA 40-4947F 1:16:03.7+24:13.4+46.73%68.15%9.36%8.65%10:30:01.4
4427Darrin, JimRedmond, WA 30-3939M 1:16:17.8+24:27.5+47.18%67.94%9.08%8.37%10:30:01.4
458Boehnke, TaylorKennewick, WA 30-3933F 1:16:20.9+24:30.6+47.28%67.90%9.02%8.30%10:30:01.4
46112Welle, JasonIssaquah, WA 30-3939M 1:16:56.5+25:06.2+48.43%67.37%8.31%7.59%10:30:01.4
4775Miller, Brittany 20-2928F 1:17:05.8+25:15.5+48.73%67.24%8.12%7.40%10:30:01.4
487Blatt, EricSeattle, WA 30-3935M 1:17:13.0+25:22.7+48.96%67.13%7.98%7.26%10:30:01.4
4912Brazao, JoaoCosta Da Caparica, Portugal 40-4942M 1:19:00.1+27:09.8+52.40%65.62%5.85%5.12%10:30:01.4
5058Keijzer, HermanGroningen 40-4949M 1:19:01.9+27:11.6+52.46%65.59%5.82%5.08%10:30:01.4
5129Drake, LisaAuburn, WA 40-4941F 1:19:03.3+27:13.0+52.50%65.57%5.79%5.05%10:00:01.0
52203Pothier, KelsiRenton, WA 30-3939F 1:19:14.4+27:24.1+52.86%65.42%5.57%4.83%10:00:01.0
53193Mattson, StacySeattle, WA 30-3939F 1:19:18.4+27:28.1+52.99%65.36%5.49%4.75%10:00:01.0
5470Mcallen, KathyMaple Valley, WA 30-3936F 1:21:03.9+29:13.6+56.38%63.95%3.40%2.64%10:30:01.4
5591Santos, CarolynSnoqualmie, WA 40-4940F 1:21:07.7+29:17.4+56.50%63.90%3.32%2.56%10:30:01.4
5699Swoish, DougOak Harbor, WA 60-6960M 1:21:39.4+29:49.1+57.52%63.48%2.69%1.93%10:30:01.4
5769Martinez, Dennis RayCovington, WA 60-6960M 1:21:41.5+29:51.2+57.59%63.46%2.65%1.89%10:30:01.4
5849Hall, DanaKirkland, WA 30-3930F 1:23:15.7+31:25.4+60.62%62.26%0.78%0.00%10:30:01.4
5917Carlisle, MatthewSammamish, WA 30-3939M 1:23:30.7+31:40.4+61.10%62.07%0.48%-0.30%10:30:01.4
6064Kritovich, AngieRenton, WA 30-3935F 1:25:09.3+33:19.0+64.27%60.88%-1.48%-2.27%10:30:01.4
61104Upton, NathanTacoma, WA 40-4941M 1:25:11.2+33:20.9+64.33%60.85%-1.52%-2.31%10:30:01.4
6234Fall, KarenDes Moines, WA 40-4949F 1:25:25.2+33:34.9+64.78%60.69%-1.79%-2.59%10:30:01.4
6322Chesshire, JamesFederal Way, WA 50-5956M 1:25:46.2+33:55.9+65.46%60.44%-2.21%-3.01%10:30:01.4
642Aronica, TonyEllensburg, WA 30-3930M 1:26:24.4+34:34.1+66.68%59.99%-2.97%-3.78%10:30:01.4
6550Halpin, ErinSeattle, WA 20-2928F 1:26:35.8+34:45.5+67.05%59.86%-3.20%-4.01%10:30:01.4
6656Johanski, MichelleSNOHOMISH, WA 30-3937F 1:28:30.1+36:39.8+70.73%58.57%-5.47%-6.29%10:30:01.4
67117Yang, Yue (Abby)SNOHOMISH, WA 30-3938F 1:28:35.7+36:45.4+70.91%58.51%-5.58%-6.41%10:30:01.4
6844Gitau, TravisSeattle, WA 20-2928M 1:29:02.6+37:12.3+71.77%58.22%-6.11%-6.94%10:30:01.4
6974Meade, RachelTumwater, WA 40-4944F 1:30:56.6+39:06.3+75.44%57.00%-8.38%-9.23%10:30:01.4
7020Chartier, JamieSeattle, WA 30-3933F 1:31:23.9+39:33.6+76.31%56.72%-8.92%-9.77%10:30:01.4
7115Cantrall, MadiganSammamish, WA 0-199F 1:31:33.5+39:43.2+76.62%56.62%-9.11%-9.96%10:30:01.4
7216Cantrall, RobertSammamish, WA 30-3939M 1:31:34.0+39:43.7+76.64%56.61%-9.12%-9.97%10:30:01.4
73118Jeremy Tucker 30-3939M 1:31:38.6+39:48.3+76.79%56.57%-9.21%-10.07%10:30:01.4
7454Humbert, KathleenShoreline, WA 40-4946F 1:32:00.2+40:09.9+77.48%56.34%-9.64%-10.50%10:30:01.4
7539Fu, WingColleyville, TX 30-3934F 1:32:18.4+40:28.1+78.07%56.16%-10.00%-10.86%10:30:01.4
76109Walters, CurtisCanton, GA 40-4943M 1:32:33.4+40:43.1+78.55%56.01%-10.30%-11.16%10:30:01.4
77137Bishop, CarolineSeattle, WA 30-3933F 1:32:36.6+40:46.3+78.65%55.97%-10.36%-11.23%10:00:01.0
78167Halpern, HelenSeattle, WA 30-3931F 1:32:38.6+40:48.3+78.72%55.95%-10.40%-11.27%10:00:01.0
7998Sweeney, JohnBothell, WA 40-4944M 1:33:24.5+41:34.2+80.19%55.50%-11.31%-12.19%10:30:01.4
8021Cheah, DanielSeattle, WA 30-3939M 1:33:38.9+41:48.6+80.65%55.35%-11.60%-12.47%10:30:01.4
8197Sutherland, BruceMill Creek WA. 60-6966M 1:34:01.2+42:10.9+81.37%55.14%-12.04%-12.92%10:30:01.4
82106Van Amen, JeanieBellevue, WA 50-5955F 1:34:52.0+43:01.7+83.00%54.64%-13.05%-13.94%10:30:01.4
8385Potvin, ChristianSeattle, WA 40-4948M 1:34:54.4+43:04.1+83.08%54.62%-13.10%-13.99%10:30:01.4
84169Harig, CarolIssaquah, WA 40-4943F 1:36:07.0+44:16.7+85.42%53.93%-14.54%-15.44%10:00:01.0
85102Trimble, VanessaCentralia, WA 30-3933F 1:36:27.7+44:37.4+86.08%53.74%-14.95%-15.85%10:30:01.4
8624Christensen, AngieCentralia, WA 30-3931F 1:36:28.8+44:38.5+86.12%53.73%-14.97%-15.88%10:30:01.4
8780Mota, MariaTacoma, WA 20-2925F 1:36:37.5+44:47.2+86.40%53.65%-15.15%-16.05%10:30:01.4
8813Brown, CoryTacoma 20-2925M 1:36:45.6+44:55.3+86.66%53.57%-15.31%-16.21%10:30:01.4
8941GIACCIO, JOETacoma, WA 40-4945M 1:37:10.7+45:20.4+87.46%53.34%-15.81%-16.71%10:30:01.4
9042GIACCIO, MARIATacoma, WA 30-3938F 1:37:11.2+45:20.9+87.48%53.34%-15.82%-16.72%10:30:01.4
91113West, MichelleMill Creek, WA 40-4948F 1:37:22.9+45:32.6+87.86%53.23%-16.05%-16.96%10:30:01.4
9251Hawkins, DianeBothell, WA 40-4947F 1:37:24.4+45:34.1+87.90%53.22%-16.08%-16.99%10:30:01.4
93116Winslow, LindseySNOHOMISH, WA 30-3934F 1:38:04.2+46:13.9+89.18%52.86%-16.87%-17.79%10:30:01.4
9471Mcallister, LisaBothell, WA 40-4946F 1:38:57.3+47:07.0+90.89%52.39%-17.92%-18.85%10:30:01.4
9589Rodriguez, JoemarieEverett, WA 30-3937F 1:39:24.0+47:33.7+91.75%52.15%-18.45%-19.38%10:30:01.4
9666Kutter, KourtneyPortlant, OR 30-3930F 1:40:20.5+48:30.2+93.57%51.66%-19.58%-20.51%10:30:01.4
9719Casne, TomBellevue, WA 30-3933M 1:40:20.7+48:30.4+93.57%51.66%-19.58%-20.52%10:30:01.4
9855HURD, STACEYSammamish, WA 30-3938F 1:41:14.4+49:24.1+95.30%51.20%-20.65%-21.59%10:30:01.4
9965Kropp, AshleyTacoma, WA 20-2929F 1:42:27.1+50:36.8+97.64%50.60%-22.09%-23.05%10:30:01.4
10033Evjene, AmandaGranite Falls, WA 20-2929F 1:42:30.2+50:39.9+97.74%50.57%-22.15%-23.11%10:30:01.4
10123Chrisman, NicoleBrier, WA 40-4945F 1:43:31.6+51:41.3+99.71%50.07%-23.37%-24.34%10:30:01.4
10276Moore, ElizabethBellevue, WA 40-4942F 1:45:38.4+53:48.1+103.79%49.07%-25.89%-26.88%10:30:01.4
103119Michael McCormack 40-4943M 1:45:42.9+53:52.6+103.93%49.04%-25.98%-26.97%10:30:01.4
104110Weaver, TomBremerton, WA 40-4947M 1:48:16.8+56:26.5+108.88%47.87%-29.04%-30.05%10:30:01.4
1056Baresh, DanSeattle, WA 50-5950M 1:48:29.4+56:39.1+109.29%47.78%-29.29%-30.30%10:30:01.4
10677MORLAN, CJUniversity Place, WA 50-5951F 1:58:45.1+1:06:54.8+129.08%43.65%-41.51%-42.62%10:30:01.4
1075Banks, HeatherMill Creek, WA 40-4943M 2:00:13.2+1:08:22.9+131.91%43.12%-43.26%-44.39%10:30:01.4
10884Pilon, JuliaIssaquah, WA 30-3932F 2:00:16.0+1:08:25.7+132.00%43.10%-43.32%-44.44%10:30:01.4
10940George, DanielleLynnwood, WA 30-3931F 2:00:17.3+1:08:27.0+132.05%43.10%-43.35%-44.47%10:30:01.4
1104Balint, IlanaEdmonds, WA 30-3937F 2:05:30.6+1:13:40.3+142.12%41.30%-49.57%-50.74%10:30:01.4
111103Tsuji, CindySan Diego, CA 40-4948F 2:05:34.2+1:13:43.9+142.23%41.28%-49.64%-50.81%10:30:01.4
11226Cox, KathySeattle, WA 50-5956F 2:05:38.2+1:13:47.9+142.36%41.26%-49.72%-50.89%10:30:01.4
11353Hippensteal, JessicaPuyallup, WA 20-2925F 2:05:41.2+1:13:50.9+142.46%41.24%-49.78%-50.95%10:30:01.4
11446Govila, Angela 30-3932F 2:07:49.9+1:15:59.6+146.60%40.55%-52.34%-53.53%10:30:01.4
11537Foster, ChristinaFederal Way, WA 30-3939F 2:07:51.1+1:16:00.8+146.64%40.55%-52.36%-53.55%10:30:01.4
-25Clithero, LoriSeattle, WA 50-5955F DNF-----10:30:01.4
-32Ernst, JackieSeattle, WA 20-2928F DNF-----10:30:01.4
-43Gierke, AndiIssaquah, WA 30-3938F DNF-----10:30:01.4
-45Glad, HeatherBellingham, WA 30-3933F DNF-----10:30:01.4
-59Keltz, AnnaSeattle, WA 30-3934F DNF-----10:30:01.4
-78Morrier-Turk, MelissaSNOHOMISH, WA 40-4943F DNF-----10:30:01.4
-83Perry, Valente 40-4940M DNF-----10:30:01.4
-86Prakash, ShaliniBellevue, WA 30-3937F DNF-----10:30:01.4
-87Randall, RebeccaSan Francisco 30-3934F DNF-----10:30:01.4
-90Rosenfeld, EricBrooklyn, NY 30-3935M DNF-----10:30:01.4
-107Wacker, MikeBellevue, WA 20-2927M DNF-----10:30:01.4
-108Walls, NicholasSeattle, WA 20-2928M DNF-----10:30:01.4
-201Perez, JimBellingham, WA 50-5957M DNF-----10:00:01.0
  • 1/2 of Half Female - Overall
Place Bib Racer name Affiliation Category Age Gender Finish time
128Davidson, Patricia 30-3933F 55:49.2--100%37.81%38.93%10:30:01.4
2121Dena Becker 40-4941F 59:30.3+3:41.1+6.60%93.81%33.70%34.89%10:30:01.4
3114Wetzel, CourtneyPuyallup, WA 20-2926F 59:30.7+3:41.5+6.61%93.80%33.69%34.89%10:30:01.4
4218Serbousek, LindsayBremerton, WA 30-3930F 1:03:00.0+7:10.8+12.86%88.60%29.81%31.07%10:30:01.4
579Morrissey, LauraCovington, WA 30-3936F 1:03:49.1+7:59.9+14.33%87.47%28.90%30.18%10:30:01.4
672Mckillop, EllaIssaquah, WA 0-1914F 1:04:44.7+8:55.5+15.99%86.22%27.86%29.16%10:30:01.4
7120Emma Jordan 0-1914F 1:04:50.6+9:01.4+16.17%86.08%27.75%29.05%10:30:01.4
838Fowler, MelissaSeattle, WA 30-3937F 1:05:40.2+9:51.0+17.65%85.00%26.83%28.15%10:30:01.4
9100Tarnacha, Ankur 30-3937F 1:07:34.6+11:45.4+21.06%82.60%24.71%26.06%10:30:01.4
1018Carlson, LynnSeattle, WA 30-3931F 1:09:58.3+14:09.1+25.35%79.78%22.04%23.44%10:30:01.4
11115Wilson, PaigeSeattle, WA 20-2926F 1:10:01.9+14:12.7+25.46%79.71%21.97%23.38%10:30:01.4
1267Lee, AllisonSeattle, WA 30-3932F 1:10:43.0+14:53.8+26.69%78.93%21.21%22.63%10:30:01.4
133Baker, AileenSeattle, WA 30-3931F 1:11:17.8+15:28.6+27.73%78.29%20.56%21.99%10:30:01.4
1473Mcnamara, LoganSeattle, WA 20-2924F 1:11:20.7+15:31.5+27.81%78.24%20.51%21.94%10:30:01.4
1535Farkas, RachelSeattle 30-3937F 1:11:37.0+15:47.8+28.30%77.94%20.21%21.64%10:30:01.4
1630Echols, RosalindSeattle, WA 30-3933F 1:12:37.8+16:48.6+30.11%76.86%19.08%20.53%10:30:01.4
1793Shivers, MindyBellevue, WA 40-4947F 1:16:03.7+20:14.5+36.26%73.39%15.25%16.78%10:30:01.4
188Boehnke, TaylorKennewick, WA 30-3933F 1:16:20.9+20:31.7+36.78%73.11%14.94%16.47%10:30:01.4
1975Miller, Brittany 20-2928F 1:17:05.8+21:16.6+38.12%72.40%14.10%15.65%10:30:01.4
2029Drake, LisaAuburn, WA 40-4941F 1:19:03.3+23:14.1+41.62%70.61%11.92%13.50%10:00:01.0
21203Pothier, KelsiRenton, WA 30-3939F 1:19:14.4+23:25.2+41.96%70.44%11.71%13.30%10:00:01.0
22193Mattson, StacySeattle, WA 30-3939F 1:19:18.4+23:29.2+42.08%70.39%11.64%13.23%10:00:01.0
2370Mcallen, KathyMaple Valley, WA 30-3936F 1:21:03.9+25:14.7+45.23%68.86%9.68%11.31%10:30:01.4
2491Santos, CarolynSnoqualmie, WA 40-4940F 1:21:07.7+25:18.5+45.34%68.80%9.61%11.24%10:30:01.4
2549Hall, DanaKirkland, WA 30-3930F 1:23:15.7+27:26.5+49.16%67.04%7.23%8.90%10:30:01.4
2664Kritovich, AngieRenton, WA 30-3935F 1:25:09.3+29:20.1+52.55%65.55%5.12%6.83%10:30:01.4
2734Fall, KarenDes Moines, WA 40-4949F 1:25:25.2+29:36.0+53.03%65.35%4.83%6.54%10:30:01.4
2850Halpin, ErinSeattle, WA 20-2928F 1:26:35.8+30:46.6+55.14%64.46%3.52%5.25%10:30:01.4
2956Johanski, MichelleSNOHOMISH, WA 30-3937F 1:28:30.1+32:40.9+58.55%63.07%1.39%3.17%10:30:01.4
30117Yang, Yue (Abby)SNOHOMISH, WA 30-3938F 1:28:35.7+32:46.5+58.72%63.01%1.29%3.07%10:30:01.4
3174Meade, RachelTumwater, WA 40-4944F 1:30:56.6+35:07.4+62.92%61.38%-1.33%0.50%10:30:01.4
3220Chartier, JamieSeattle, WA 30-3933F 1:31:23.9+35:34.7+63.74%61.07%-1.83%0.00%10:30:01.4
3315Cantrall, MadiganSammamish, WA 0-199F 1:31:33.5+35:44.3+64.02%60.97%-2.01%-0.18%10:30:01.4
3454Humbert, KathleenShoreline, WA 40-4946F 1:32:00.2+36:11.0+64.82%60.67%-2.51%-0.66%10:30:01.4
3539Fu, WingColleyville, TX 30-3934F 1:32:18.4+36:29.2+65.36%60.47%-2.85%-0.99%10:30:01.4
36137Bishop, CarolineSeattle, WA 30-3933F 1:32:36.6+36:47.4+65.91%60.27%-3.18%-1.33%10:00:01.0
37167Halpern, HelenSeattle, WA 30-3931F 1:32:38.6+36:49.4+65.97%60.25%-3.22%-1.36%10:00:01.0
38106Van Amen, JeanieBellevue, WA 50-5955F 1:34:52.0+39:02.8+69.95%58.84%-5.70%-3.79%10:30:01.4
39169Harig, CarolIssaquah, WA 40-4943F 1:36:07.0+40:17.8+72.19%58.08%-7.09%-5.16%10:00:01.0
40102Trimble, VanessaCentralia, WA 30-3933F 1:36:27.7+40:38.5+72.81%57.87%-7.47%-5.54%10:30:01.4
4124Christensen, AngieCentralia, WA 30-3931F 1:36:28.8+40:39.6+72.84%57.86%-7.49%-5.56%10:30:01.4
4280Mota, MariaTacoma, WA 20-2925F 1:36:37.5+40:48.3+73.10%57.77%-7.66%-5.72%10:30:01.4
4342GIACCIO, MARIATacoma, WA 30-3938F 1:37:11.2+41:22.0+74.11%57.44%-8.28%-6.33%10:30:01.4
44113West, MichelleMill Creek, WA 40-4948F 1:37:22.9+41:33.7+74.46%57.32%-8.50%-6.55%10:30:01.4
4551Hawkins, DianeBothell, WA 40-4947F 1:37:24.4+41:35.2+74.50%57.31%-8.53%-6.57%10:30:01.4
46116Winslow, LindseySNOHOMISH, WA 30-3934F 1:38:04.2+42:15.0+75.69%56.92%-9.27%-7.30%10:30:01.4
4771Mcallister, LisaBothell, WA 40-4946F 1:38:57.3+43:08.1+77.28%56.41%-10.25%-8.27%10:30:01.4
4889Rodriguez, JoemarieEverett, WA 30-3937F 1:39:24.0+43:34.8+78.07%56.16%-10.75%-8.75%10:30:01.4
4966Kutter, KourtneyPortlant, OR 30-3930F 1:40:20.5+44:31.3+79.76%55.63%-11.80%-9.79%10:30:01.4
5055HURD, STACEYSammamish, WA 30-3938F 1:41:14.4+45:25.2+81.37%55.14%-12.80%-10.77%10:30:01.4
5165Kropp, AshleyTacoma, WA 20-2929F 1:42:27.1+46:37.9+83.54%54.48%-14.15%-12.09%10:30:01.4
5233Evjene, AmandaGranite Falls, WA 20-2929F 1:42:30.2+46:41.0+83.63%54.46%-14.21%-12.15%10:30:01.4
5323Chrisman, NicoleBrier, WA 40-4945F 1:43:31.6+47:42.4+85.47%53.92%-15.35%-13.27%10:30:01.4
5476Moore, ElizabethBellevue, WA 40-4942F 1:45:38.4+49:49.2+89.25%52.84%-17.70%-15.58%10:30:01.4
5577MORLAN, CJUniversity Place, WA 50-5951F 1:58:45.1+1:02:55.9+112.74%47.01%-32.31%-29.93%10:30:01.4
5684Pilon, JuliaIssaquah, WA 30-3932F 2:00:16.0+1:04:26.8+115.45%46.41%-34.00%-31.59%10:30:01.4
5740George, DanielleLynnwood, WA 30-3931F 2:00:17.3+1:04:28.1+115.49%46.41%-34.02%-31.61%10:30:01.4
584Balint, IlanaEdmonds, WA 30-3937F 2:05:30.6+1:09:41.4+124.85%44.47%-39.84%-37.32%10:30:01.4
59103Tsuji, CindySan Diego, CA 40-4948F 2:05:34.2+1:09:45.0+124.96%44.45%-39.91%-37.39%10:30:01.4
6026Cox, KathySeattle, WA 50-5956F 2:05:38.2+1:09:49.0+125.07%44.43%-39.98%-37.46%10:30:01.4
6153Hippensteal, JessicaPuyallup, WA 20-2925F 2:05:41.2+1:09:52.0+125.16%44.41%-40.04%-37.52%10:30:01.4
6246Govila, Angela 30-3932F 2:07:49.9+1:12:00.7+129.01%43.67%-42.43%-39.86%10:30:01.4
6337Foster, ChristinaFederal Way, WA 30-3939F 2:07:51.1+1:12:01.9+129.04%43.66%-42.45%-39.88%10:30:01.4
-25Clithero, LoriSeattle, WA 50-5955F DNF-----10:30:01.4
-32Ernst, JackieSeattle, WA 20-2928F DNF-----10:30:01.4
-43Gierke, AndiIssaquah, WA 30-3938F DNF-----10:30:01.4
-45Glad, HeatherBellingham, WA 30-3933F DNF-----10:30:01.4
-59Keltz, AnnaSeattle, WA 30-3934F DNF-----10:30:01.4
-78Morrier-Turk, MelissaSNOHOMISH, WA 40-4943F DNF-----10:30:01.4
-86Prakash, ShaliniBellevue, WA 30-3937F DNF-----10:30:01.4
-87Randall, RebeccaSan Francisco 30-3934F DNF-----10:30:01.4
  • 1/2 of Half Female - 0-19
Place Bib Racer name Affiliation Category Age Gender Finish time
172Mckillop, EllaIssaquah, WA 0-1914F 1:04:44.7--100%12.17%0.15%10:30:01.4
2120Emma Jordan 0-1914F 1:04:50.6+0:05.9+0.15%99.85%12.04%0.00%10:30:01.4
315Cantrall, MadiganSammamish, WA 0-199F 1:31:33.5+26:48.8+41.41%70.71%-24.20%-41.20%10:30:01.4
  • 1/2 of Half Female - 20-29
Place Bib Racer name Affiliation Category Age Gender Finish time
1114Wetzel, CourtneyPuyallup, WA 20-2926F 59:30.7--100%32.36%31.28%10:30:01.4
2115Wilson, PaigeSeattle, WA 20-2926F 1:10:01.9+10:31.2+17.68%84.98%20.40%19.13%10:30:01.4
373Mcnamara, LoganSeattle, WA 20-2924F 1:11:20.7+11:50.0+19.88%83.41%18.91%17.61%10:30:01.4
475Miller, Brittany 20-2928F 1:17:05.8+17:35.1+29.55%77.19%12.37%10.97%10:30:01.4
550Halpin, ErinSeattle, WA 20-2928F 1:26:35.8+27:05.1+45.51%68.72%1.58%0.00%10:30:01.4
680Mota, MariaTacoma, WA 20-2925F 1:36:37.5+37:06.8+62.36%61.59%-9.82%-11.58%10:30:01.4
765Kropp, AshleyTacoma, WA 20-2929F 1:42:27.1+42:56.4+72.15%58.09%-16.44%-18.31%10:30:01.4
833Evjene, AmandaGranite Falls, WA 20-2929F 1:42:30.2+42:59.5+72.24%58.06%-16.50%-18.37%10:30:01.4
953Hippensteal, JessicaPuyallup, WA 20-2925F 2:05:41.2+1:06:10.5+111.20%47.35%-42.85%-45.14%10:30:01.4
-32Ernst, JackieSeattle, WA 20-2928F DNF-----10:30:01.4
  • 1/2 of Half Female - 30-39
Place Bib Racer name Affiliation Category Age Gender Finish time
128Davidson, Patricia 30-3933F 55:49.2--100%37.02%36.96%10:30:01.4
2218Serbousek, LindsayBremerton, WA 30-3930F 1:03:00.0+7:10.8+12.86%88.60%28.92%28.85%10:30:01.4
379Morrissey, LauraCovington, WA 30-3936F 1:03:49.1+7:59.9+14.33%87.47%28.00%27.93%10:30:01.4
438Fowler, MelissaSeattle, WA 30-3937F 1:05:40.2+9:51.0+17.65%85.00%25.91%25.84%10:30:01.4
5100Tarnacha, Ankur 30-3937F 1:07:34.6+11:45.4+21.06%82.60%23.76%23.68%10:30:01.4
618Carlson, LynnSeattle, WA 30-3931F 1:09:58.3+14:09.1+25.35%79.78%21.05%20.98%10:30:01.4
767Lee, AllisonSeattle, WA 30-3932F 1:10:43.0+14:53.8+26.69%78.93%20.21%20.14%10:30:01.4
83Baker, AileenSeattle, WA 30-3931F 1:11:17.8+15:28.6+27.73%78.29%19.56%19.48%10:30:01.4
935Farkas, RachelSeattle 30-3937F 1:11:37.0+15:47.8+28.30%77.94%19.20%19.12%10:30:01.4
1030Echols, RosalindSeattle, WA 30-3933F 1:12:37.8+16:48.6+30.11%76.86%18.05%17.98%10:30:01.4
118Boehnke, TaylorKennewick, WA 30-3933F 1:16:20.9+20:31.7+36.78%73.11%13.86%13.78%10:30:01.4
12203Pothier, KelsiRenton, WA 30-3939F 1:19:14.4+23:25.2+41.96%70.44%10.60%10.51%10:00:01.0
13193Mattson, StacySeattle, WA 30-3939F 1:19:18.4+23:29.2+42.08%70.39%10.52%10.44%10:00:01.0
1470Mcallen, KathyMaple Valley, WA 30-3936F 1:21:03.9+25:14.7+45.23%68.86%8.54%8.45%10:30:01.4
1549Hall, DanaKirkland, WA 30-3930F 1:23:15.7+27:26.5+49.16%67.04%6.06%5.97%10:30:01.4
1664Kritovich, AngieRenton, WA 30-3935F 1:25:09.3+29:20.1+52.55%65.55%3.92%3.83%10:30:01.4
1756Johanski, MichelleSNOHOMISH, WA 30-3937F 1:28:30.1+32:40.9+58.55%63.07%0.15%0.05%10:30:01.4
18117Yang, Yue (Abby)SNOHOMISH, WA 30-3938F 1:28:35.7+32:46.5+58.72%63.01%0.04%-0.05%10:30:01.4
1920Chartier, JamieSeattle, WA 30-3933F 1:31:23.9+35:34.7+63.74%61.07%-3.12%-3.22%10:30:01.4
2039Fu, WingColleyville, TX 30-3934F 1:32:18.4+36:29.2+65.36%60.47%-4.15%-4.24%10:30:01.4
21137Bishop, CarolineSeattle, WA 30-3933F 1:32:36.6+36:47.4+65.91%60.27%-4.49%-4.59%10:00:01.0
22167Halpern, HelenSeattle, WA 30-3931F 1:32:38.6+36:49.4+65.97%60.25%-4.53%-4.62%10:00:01.0
23102Trimble, VanessaCentralia, WA 30-3933F 1:36:27.7+40:38.5+72.81%57.87%-8.83%-8.94%10:30:01.4
2424Christensen, AngieCentralia, WA 30-3931F 1:36:28.8+40:39.6+72.84%57.86%-8.85%-8.96%10:30:01.4
2542GIACCIO, MARIATacoma, WA 30-3938F 1:37:11.2+41:22.0+74.11%57.44%-9.65%-9.76%10:30:01.4
26116Winslow, LindseySNOHOMISH, WA 30-3934F 1:38:04.2+42:15.0+75.69%56.92%-10.65%-10.75%10:30:01.4
2789Rodriguez, JoemarieEverett, WA 30-3937F 1:39:24.0+43:34.8+78.07%56.16%-12.15%-12.26%10:30:01.4
2866Kutter, KourtneyPortlant, OR 30-3930F 1:40:20.5+44:31.3+79.76%55.63%-13.21%-13.32%10:30:01.4
2955HURD, STACEYSammamish, WA 30-3938F 1:41:14.4+45:25.2+81.37%55.14%-14.23%-14.33%10:30:01.4
3084Pilon, JuliaIssaquah, WA 30-3932F 2:00:16.0+1:04:26.8+115.45%46.41%-35.69%-35.82%10:30:01.4
3140George, DanielleLynnwood, WA 30-3931F 2:00:17.3+1:04:28.1+115.49%46.41%-35.72%-35.84%10:30:01.4
324Balint, IlanaEdmonds, WA 30-3937F 2:05:30.6+1:09:41.4+124.85%44.47%-41.61%-41.74%10:30:01.4
3346Govila, Angela 30-3932F 2:07:49.9+1:12:00.7+129.01%43.67%-44.23%-44.36%10:30:01.4
3437Foster, ChristinaFederal Way, WA 30-3939F 2:07:51.1+1:12:01.9+129.04%43.66%-44.25%-44.39%10:30:01.4
-43Gierke, AndiIssaquah, WA 30-3938F DNF-----10:30:01.4
-45Glad, HeatherBellingham, WA 30-3933F DNF-----10:30:01.4
-59Keltz, AnnaSeattle, WA 30-3934F DNF-----10:30:01.4
-86Prakash, ShaliniBellevue, WA 30-3937F DNF-----10:30:01.4
-87Randall, RebeccaSan Francisco 30-3934F DNF-----10:30:01.4
  • 1/2 of Half Female - 40-49
Place Bib Racer name Affiliation Category Age Gender Finish time
1121Dena Becker 40-4941F 59:30.3--100%35.36%36.74%10:30:01.4
293Shivers, MindyBellevue, WA 40-4947F 1:16:03.7+16:33.4+27.82%78.23%17.37%19.13%10:30:01.4
329Drake, LisaAuburn, WA 40-4941F 1:19:03.3+19:33.0+32.85%75.27%14.12%15.95%10:00:01.0
491Santos, CarolynSnoqualmie, WA 40-4940F 1:21:07.7+21:37.4+36.34%73.35%11.87%13.75%10:30:01.4
534Fall, KarenDes Moines, WA 40-4949F 1:25:25.2+25:54.9+43.55%69.66%7.20%9.19%10:30:01.4
674Meade, RachelTumwater, WA 40-4944F 1:30:56.6+31:26.3+52.83%65.43%1.20%3.31%10:30:01.4
754Humbert, KathleenShoreline, WA 40-4946F 1:32:00.2+32:29.9+54.61%64.68%0.05%2.19%10:30:01.4
8169Harig, CarolIssaquah, WA 40-4943F 1:36:07.0+36:36.7+61.53%61.91%-4.42%-2.19%10:00:01.0
9113West, MichelleMill Creek, WA 40-4948F 1:37:22.9+37:52.6+63.65%61.10%-5.79%-3.53%10:30:01.4
1051Hawkins, DianeBothell, WA 40-4947F 1:37:24.4+37:54.1+63.69%61.09%-5.82%-3.56%10:30:01.4
1171Mcallister, LisaBothell, WA 40-4946F 1:38:57.3+39:27.0+66.30%60.13%-7.50%-5.20%10:30:01.4
1223Chrisman, NicoleBrier, WA 40-4945F 1:43:31.6+44:01.3+73.98%57.48%-12.47%-10.06%10:30:01.4
1376Moore, ElizabethBellevue, WA 40-4942F 1:45:38.4+46:08.1+77.53%56.33%-14.76%-12.31%10:30:01.4
14103Tsuji, CindySan Diego, CA 40-4948F 2:05:34.2+1:06:03.9+111.02%47.39%-36.41%-33.50%10:30:01.4
-78Morrier-Turk, MelissaSNOHOMISH, WA 40-4943F DNF-----10:30:01.4
  • 1/2 of Half Female - 50-59
Place Bib Racer name Affiliation Category Age Gender Finish time
1106Van Amen, JeanieBellevue, WA 50-5955F 1:34:52.0--100%16.11%20.11%10:30:01.4
277MORLAN, CJUniversity Place, WA 50-5951F 1:58:45.1+23:53.1+25.18%79.89%-5.01%0.00%10:30:01.4
326Cox, KathySeattle, WA 50-5956F 2:05:38.2+30:46.2+32.43%75.51%-11.10%-5.80%10:30:01.4
-25Clithero, LoriSeattle, WA 50-5955F DNF-----10:30:01.4
  • 1/2 of Half Male - Overall
Place Bib Racer name Affiliation Category Age Gender Finish time
131Egbert, TravisTempe, AZ 20-2926M 51:50.3--100%32.54%30.75%10:30:01.4
257Juhl, TorbenSeattle, WA 40-4949M 52:57.4+1:07.1+2.16%97.89%31.08%29.25%10:30:01.4
336Farrell, KerryFederal Way, WA 50-5955M 53:04.1+1:13.8+2.37%97.68%30.94%29.11%10:30:01.4
488Rembac, RossIssaquah, WA 40-4949M 53:09.9+1:19.6+2.56%97.50%30.81%28.98%10:30:01.4
552Heaps, SteveFall City, WA 50-5951M 53:53.4+2:03.1+3.96%96.19%29.87%28.01%10:30:01.4
696Stueber, RyanAuburn, WA 30-3935M 54:24.0+2:33.7+4.94%95.29%29.20%27.33%10:30:01.4
711Brandt, JeffLake Tapps, WA 50-5951M 56:51.1+5:00.8+9.67%91.18%26.01%24.05%10:30:01.4
863Koster, BrandSeattle, WA 20-2925M 56:55.7+5:05.4+9.82%91.06%25.91%23.95%10:30:01.4
981O'neill, MikeBrooklyn, NY 50-5952M 57:12.8+5:22.5+10.37%90.61%25.54%23.57%10:30:01.4
1092Schulte, SteveSeattle, WA 40-4942M 58:55.0+7:04.7+13.65%87.99%23.33%21.29%10:30:01.4
1148Grubb, JaySeattle, WA 50-5955M 59:28.6+7:38.3+14.73%87.16%22.60%20.54%10:30:01.4
12105Van Amen, DarrellBellevue, WA 50-5950M 1:00:34.0+8:43.7+16.84%85.59%21.18%19.09%10:30:01.4
1382Parkison, BenRedmond, WA 30-3933M 1:01:49.9+9:59.6+19.28%83.84%19.53%17.40%10:30:01.4
14195Mills, GregoryBellevue, WA 50-5953M 1:02:10.0+10:19.7+19.92%83.39%19.10%16.95%10:30:01.4
151Anderson, MatthewSeattle, WA 30-3935M 1:02:56.9+11:06.6+21.43%82.35%18.08%15.91%10:30:01.4
1695Smith, MichaelDes Moines, WA 50-5956M 1:06:14.4+14:24.1+27.78%78.26%13.80%11.51%10:30:01.4
1794Shivers, SteveSteve Shivers, WA 40-4946M 1:07:25.3+15:35.0+30.06%76.89%12.26%9.93%10:30:01.4
1860Kent, KevinDes Moines, WA 50-5950M 1:08:31.4+16:41.1+32.19%75.65%10.82%8.46%10:30:01.4
1914Cantrall, LoganSammamish, WA 0-1910M 1:09:01.3+17:11.0+33.15%75.10%10.18%7.79%10:30:01.4
2062Knoy, JustinSeattle, WA 30-3934M 1:09:07.8+17:17.5+33.36%74.99%10.04%7.65%10:30:01.4
2147Graham, DanKenmore, WA 40-4945M 1:09:09.7+17:19.4+33.42%74.95%9.99%7.61%10:30:01.4
2210Boutillier, WilfriedSeattle, WA 40-4940M 1:09:14.8+17:24.5+33.58%74.86%9.88%7.49%10:30:01.4
2361Keresteci, ErcenkRedmond, WA 40-4948M 1:11:10.8+19:20.5+37.31%72.83%7.37%4.91%10:30:01.4
24111Weiss, GeorgeBellevue, WA 60-6965M 1:12:22.7+20:32.4+39.62%71.62%5.81%3.31%10:30:01.4
2568MANUM, MARKSeattle, WA 50-5950M 1:13:18.9+21:28.6+41.43%70.71%4.59%2.06%10:30:01.4
269Bosket, KenArlington, WA 60-6960M 1:13:24.8+21:34.5+41.62%70.61%4.46%1.93%10:30:01.4
2727Darrin, JimRedmond, WA 30-3939M 1:16:17.8+24:27.5+47.18%67.94%0.71%-1.93%10:30:01.4
28112Welle, JasonIssaquah, WA 30-3939M 1:16:56.5+25:06.2+48.43%67.37%-0.13%-2.79%10:30:01.4
297Blatt, EricSeattle, WA 30-3935M 1:17:13.0+25:22.7+48.96%67.13%-0.49%-3.15%10:30:01.4
3012Brazao, JoaoCosta Da Caparica, Portugal 40-4942M 1:19:00.1+27:09.8+52.40%65.62%-2.81%-5.54%10:30:01.4
3158Keijzer, HermanGroningen 40-4949M 1:19:01.9+27:11.6+52.46%65.59%-2.85%-5.58%10:30:01.4
3299Swoish, DougOak Harbor, WA 60-6960M 1:21:39.4+29:49.1+57.52%63.48%-6.27%-9.09%10:30:01.4
3369Martinez, Dennis RayCovington, WA 60-6960M 1:21:41.5+29:51.2+57.59%63.46%-6.31%-9.13%10:30:01.4
3417Carlisle, MatthewSammamish, WA 30-3939M 1:23:30.7+31:40.4+61.10%62.07%-8.68%-11.56%10:30:01.4
35104Upton, NathanTacoma, WA 40-4941M 1:25:11.2+33:20.9+64.33%60.85%-10.86%-13.80%10:30:01.4
3622Chesshire, JamesFederal Way, WA 50-5956M 1:25:46.2+33:55.9+65.46%60.44%-11.62%-14.58%10:30:01.4
372Aronica, TonyEllensburg, WA 30-3930M 1:26:24.4+34:34.1+66.68%59.99%-12.45%-15.43%10:30:01.4
3844Gitau, TravisSeattle, WA 20-2928M 1:29:02.6+37:12.3+71.77%58.22%-15.88%-18.95%10:30:01.4
3916Cantrall, RobertSammamish, WA 30-3939M 1:31:34.0+39:43.7+76.64%56.61%-19.16%-22.33%10:30:01.4
40118Jeremy Tucker 30-3939M 1:31:38.6+39:48.3+76.79%56.57%-19.26%-22.43%10:30:01.4
41109Walters, CurtisCanton, GA 40-4943M 1:32:33.4+40:43.1+78.55%56.01%-20.45%-23.65%10:30:01.4
4298Sweeney, JohnBothell, WA 40-4944M 1:33:24.5+41:34.2+80.19%55.50%-21.56%-24.79%10:30:01.4
4321Cheah, DanielSeattle, WA 30-3939M 1:33:38.9+41:48.6+80.65%55.35%-21.87%-25.11%10:30:01.4
4497Sutherland, BruceMill Creek WA. 60-6966M 1:34:01.2+42:10.9+81.37%55.14%-22.36%-25.60%10:30:01.4
4585Potvin, ChristianSeattle, WA 40-4948M 1:34:54.4+43:04.1+83.08%54.62%-23.51%-26.79%10:30:01.4
4613Brown, CoryTacoma 20-2925M 1:36:45.6+44:55.3+86.66%53.57%-25.92%-29.26%10:30:01.4
4741GIACCIO, JOETacoma, WA 40-4945M 1:37:10.7+45:20.4+87.46%53.34%-26.47%-29.82%10:30:01.4
4819Casne, TomBellevue, WA 30-3933M 1:40:20.7+48:30.4+93.57%51.66%-30.59%-34.05%10:30:01.4
49119Michael McCormack 40-4943M 1:45:42.9+53:52.6+103.93%49.04%-37.58%-41.23%10:30:01.4
50110Weaver, TomBremerton, WA 40-4947M 1:48:16.8+56:26.5+108.88%47.87%-40.91%-44.65%10:30:01.4
516Baresh, DanSeattle, WA 50-5950M 1:48:29.4+56:39.1+109.29%47.78%-41.19%-44.93%10:30:01.4
525Banks, HeatherMill Creek, WA 40-4943M 2:00:13.2+1:08:22.9+131.91%43.12%-56.45%-60.60%10:30:01.4
-83Perry, Valente 40-4940M DNF-----10:30:01.4
-90Rosenfeld, EricBrooklyn, NY 30-3935M DNF-----10:30:01.4
-107Wacker, MikeBellevue, WA 20-2927M DNF-----10:30:01.4
-108Walls, NicholasSeattle, WA 20-2928M DNF-----10:30:01.4
-201Perez, JimBellingham, WA 50-5957M DNF-----10:00:01.0
  • 1/2 of Half Male - 0-19
Place Bib Racer name Affiliation Category Age Gender Finish time
114Cantrall, LoganSammamish, WA 0-1910M 1:09:01.3--100%0.00%0.00%10:30:01.4
  • 1/2 of Half Male - 20-29
Place Bib Racer name Affiliation Category Age Gender Finish time
131Egbert, TravisTempe, AZ 20-2926M 51:50.3--100%29.61%28.97%10:30:01.4
263Koster, BrandSeattle, WA 20-2925M 56:55.7+5:05.4+9.82%91.06%22.70%22.00%10:30:01.4
344Gitau, TravisSeattle, WA 20-2928M 1:29:02.6+37:12.3+71.77%58.22%-20.91%-22.00%10:30:01.4
413Brown, CoryTacoma 20-2925M 1:36:45.6+44:55.3+86.66%53.57%-31.39%-32.57%10:30:01.4
-107Wacker, MikeBellevue, WA 20-2927M DNF-----10:30:01.4
-108Walls, NicholasSeattle, WA 20-2928M DNF-----10:30:01.4
  • 1/2 of Half Male - 30-39
Place Bib Racer name Affiliation Category Age Gender Finish time
196Stueber, RyanAuburn, WA 30-3935M 54:24.0--100%31.06%29.55%10:30:01.4
282Parkison, BenRedmond, WA 30-3933M 1:01:49.9+7:25.9+13.66%87.98%21.65%19.92%10:30:01.4
31Anderson, MatthewSeattle, WA 30-3935M 1:02:56.9+8:32.9+15.71%86.42%20.23%18.48%10:30:01.4
462Knoy, JustinSeattle, WA 30-3934M 1:09:07.8+14:43.8+27.08%78.69%12.40%10.47%10:30:01.4
527Darrin, JimRedmond, WA 30-3939M 1:16:17.8+21:53.8+40.25%71.30%3.32%1.19%10:30:01.4
6112Welle, JasonIssaquah, WA 30-3939M 1:16:56.5+22:32.5+41.44%70.70%2.50%0.36%10:30:01.4
77Blatt, EricSeattle, WA 30-3935M 1:17:13.0+22:49.0+41.94%70.45%2.15%0.00%10:30:01.4
817Carlisle, MatthewSammamish, WA 30-3939M 1:23:30.7+29:06.7+53.51%65.14%-5.83%-8.15%10:30:01.4
92Aronica, TonyEllensburg, WA 30-3930M 1:26:24.4+32:00.4+58.84%62.96%-9.49%-11.90%10:30:01.4
1016Cantrall, RobertSammamish, WA 30-3939M 1:31:34.0+37:10.0+68.32%59.41%-16.03%-18.58%10:30:01.4
11118Jeremy Tucker 30-3939M 1:31:38.6+37:14.6+68.46%59.36%-16.13%-18.68%10:30:01.4
1221Cheah, DanielSeattle, WA 30-3939M 1:33:38.9+39:14.9+72.15%58.09%-18.67%-21.28%10:30:01.4
1319Casne, TomBellevue, WA 30-3933M 1:40:20.7+45:56.7+84.46%54.21%-27.16%-29.95%10:30:01.4
-90Rosenfeld, EricBrooklyn, NY 30-3935M DNF-----10:30:01.4
  • 1/2 of Half Male - 40-49
Place Bib Racer name Affiliation Category Age Gender Finish time
157Juhl, TorbenSeattle, WA 40-4949M 52:57.4--100%35.58%32.99%10:30:01.4
288Rembac, RossIssaquah, WA 40-4949M 53:09.9+0:12.5+0.39%99.61%35.33%32.73%10:30:01.4
392Schulte, SteveSeattle, WA 40-4942M 58:55.0+5:57.6+11.25%89.88%28.33%25.45%10:30:01.4
494Shivers, SteveSteve Shivers, WA 40-4946M 1:07:25.3+14:27.9+27.31%78.55%17.99%14.69%10:30:01.4
547Graham, DanKenmore, WA 40-4945M 1:09:09.7+16:12.3+30.60%76.57%15.87%12.49%10:30:01.4
610Boutillier, WilfriedSeattle, WA 40-4940M 1:09:14.8+16:17.4+30.76%76.48%15.77%12.38%10:30:01.4
761Keresteci, ErcenkRedmond, WA 40-4948M 1:11:10.8+18:13.4+34.41%74.40%13.41%9.93%10:30:01.4
812Brazao, JoaoCosta Da Caparica, Portugal 40-4942M 1:19:00.1+26:02.7+49.18%67.03%3.90%0.04%10:30:01.4
958Keijzer, HermanGroningen 40-4949M 1:19:01.9+26:04.5+49.24%67.01%3.86%0.00%10:30:01.4
10104Upton, NathanTacoma, WA 40-4941M 1:25:11.2+32:13.8+60.86%62.17%-3.62%-7.79%10:30:01.4
11109Walters, CurtisCanton, GA 40-4943M 1:32:33.4+39:36.0+74.78%57.22%-12.59%-17.11%10:30:01.4
1298Sweeney, JohnBothell, WA 40-4944M 1:33:24.5+40:27.1+76.39%56.69%-13.62%-18.19%10:30:01.4
1385Potvin, ChristianSeattle, WA 40-4948M 1:34:54.4+41:57.0+79.22%55.80%-15.45%-20.09%10:30:01.4
1441GIACCIO, JOETacoma, WA 40-4945M 1:37:10.7+44:13.3+83.51%54.49%-18.21%-22.96%10:30:01.4
15119Michael McCormack 40-4943M 1:45:42.9+52:45.5+99.63%50.09%-28.59%-33.76%10:30:01.4
16110Weaver, TomBremerton, WA 40-4947M 1:48:16.8+55:19.4+104.47%48.91%-31.71%-37.01%10:30:01.4
175Banks, HeatherMill Creek, WA 40-4943M 2:00:13.2+1:07:15.8+127.02%44.05%-46.24%-52.12%10:30:01.4
-83Perry, Valente 40-4940M DNF-----10:30:01.4
  • 1/2 of Half Male - 50-59
Place Bib Racer name Affiliation Category Age Gender Finish time
136Farrell, KerryFederal Way, WA 50-5955M 53:04.1--100%20.95%13.52%10:30:01.4
252Heaps, SteveFall City, WA 50-5951M 53:53.4+0:49.3+1.55%98.48%19.72%12.18%10:30:01.4
311Brandt, JeffLake Tapps, WA 50-5951M 56:51.1+3:47.0+7.13%93.35%15.31%7.36%10:30:01.4
481O'neill, MikeBrooklyn, NY 50-5952M 57:12.8+4:08.7+7.81%92.76%14.77%6.77%10:30:01.4
548Grubb, JaySeattle, WA 50-5955M 59:28.6+6:24.5+12.08%89.23%11.40%3.08%10:30:01.4
6105Van Amen, DarrellBellevue, WA 50-5950M 1:00:34.0+7:29.9+14.13%87.62%9.78%1.30%10:30:01.4
7195Mills, GregoryBellevue, WA 50-5953M 1:02:10.0+9:05.9+17.14%85.36%7.39%-1.30%10:30:01.4
895Smith, MichaelDes Moines, WA 50-5956M 1:06:14.4+13:10.3+24.82%80.12%1.33%-7.94%10:30:01.4
960Kent, KevinDes Moines, WA 50-5950M 1:08:31.4+15:27.3+29.12%77.45%-2.07%-11.66%10:30:01.4
1068MANUM, MARKSeattle, WA 50-5950M 1:13:18.9+20:14.8+38.15%72.38%-9.21%-19.47%10:30:01.4
1122Chesshire, JamesFederal Way, WA 50-5956M 1:25:46.2+32:42.1+61.62%61.87%-27.77%-39.77%10:30:01.4
126Baresh, DanSeattle, WA 50-5950M 1:48:29.4+55:25.3+104.43%48.92%-61.61%-76.79%10:30:01.4
-201Perez, JimBellingham, WA 50-5957M DNF-----10:00:01.0
  • 1/2 of Half Male - 60-69
Place Bib Racer name Affiliation Category Age Gender Finish time
1111Weiss, GeorgeBellevue, WA 60-6965M 1:12:22.7--100%10.24%11.36%10:30:01.4
29Bosket, KenArlington, WA 60-6960M 1:13:24.8+1:02.1+1.43%98.59%8.95%10.10%10:30:01.4
399Swoish, DougOak Harbor, WA 60-6960M 1:21:39.4+9:16.7+12.82%88.64%-1.27%0.00%10:30:01.4
469Martinez, Dennis RayCovington, WA 60-6960M 1:21:41.5+9:18.8+12.87%88.60%-1.31%-0.04%10:30:01.4
597Sutherland, BruceMill Creek WA. 60-6966M 1:34:01.2+21:38.5+29.90%76.98%-16.60%-15.14%10:30:01.4
  • Half Marathon - Overall
Place Bib Racer name Affiliation Category Age Gender Finish time
1148Doyon, TahomaSeattle, WA 30-3931M 1:32:12.8--100%41.45%42.30%10:00:01.0
2166Hall, KevinIssaquah, WA 20-2928M 1:34:37.9+2:25.1+2.62%97.44%39.92%40.79%10:00:01.0
3170Harsha-Strong, AlexSeattle, WA 30-3930M 1:40:22.5+8:09.7+8.85%91.87%36.27%37.20%10:00:01.0
4156Gendro, JonnyFall City, WA 0-1918M 1:42:05.9+9:53.1+10.72%90.32%35.18%36.12%10:00:01.0
5151Eckel, TonyBothell, WA 40-4948M 1:42:46.5+10:33.7+11.45%89.72%34.75%35.69%10:00:01.0
6212Romano, JoeTacoma, WA 30-3935M 1:47:35.9+15:23.1+16.68%85.70%31.69%32.68%10:00:01.0
7186Lemay, KeithBellevue, WA 20-2929M 1:53:42.9+21:30.1+23.32%81.09%27.80%28.85%10:00:01.0
8211Rodakowski, JohnOlympia, WA 50-5950M 1:53:56.5+21:43.7+23.56%80.93%27.66%28.71%10:00:01.0
9181Kirsch, NickSeattle, WA 30-3937M 1:57:38.7+25:25.9+27.58%78.38%25.31%26.39%10:00:01.0
10217Schwartz, MarkSanta Clara, CA 20-2927M 1:57:55.2+25:42.4+27.88%78.20%25.13%26.22%10:00:01.0
11154Flood, MikeIssaquah, WA 40-4940M 1:58:48.6+26:35.8+28.84%77.61%24.57%25.66%10:00:01.0
12202Peterka, ZethShoreline, WA 0-1916M 2:04:39.8+32:27.0+35.19%73.97%20.85%22.00%10:00:01.0
13178Kelly-Stallings, DannySeattle, WA 30-3933M 2:09:20.4+37:07.6+40.26%71.30%17.88%19.07%10:00:01.0
14139Boehnke, MichaelKennewick, WA 40-4949M 2:10:39.1+38:26.3+41.68%70.58%17.05%18.25%10:00:01.0
15142Brown, LeahSeattle, WA 30-3932F 2:11:24.2+39:11.4+42.50%70.18%16.57%17.78%10:00:01.0
16216Schmidt, JeffTacoma, WA 40-4941M 2:12:08.0+39:55.2+43.29%69.79%16.11%17.32%10:00:01.0
17153Fletcher, BarnabyPuyallup, WA 30-3930M 2:13:46.8+41:34.0+45.08%68.93%15.06%16.29%10:00:01.0
18164Guy, CarsonSeattle, WA 30-3930M 2:16:19.1+44:06.3+47.83%67.65%13.45%14.71%10:00:01.0
19138Blomgren, PeterIssaquah, WA 40-4942M 2:18:07.9+45:55.1+49.80%66.76%12.30%13.57%10:00:01.0
20196Moore, DavidTacoma, WA 40-4949M 2:18:46.8+46:34.0+50.50%66.45%11.89%13.17%10:00:01.0
21168Hamblin, DavidArlington, VA 30-3936M 2:20:43.1+48:30.3+52.60%65.53%10.66%11.95%10:00:01.0
22150Eames, EllenNewcastle, WA 30-3936F 2:21:20.7+49:07.9+53.28%65.24%10.26%11.56%10:00:01.0
23233Jason Miur 40-4941M 2:21:29.5+49:16.7+53.44%65.17%10.17%11.47%10:00:01.0
24135Barnett, AlexanderMercer Island, WA 40-4947M 2:22:01.2+49:48.4+54.01%64.93%9.83%11.14%10:00:01.0
25235Tom Vail 50-5951M 2:22:42.8+50:30.0+54.76%64.61%9.39%10.70%10:00:01.0
26226Walsh, KaylaAndover, MA 20-2924F 2:23:11.0+50:58.2+55.27%64.40%9.09%10.41%10:00:01.0
27228Warrington, SteveSpokane, WA 50-5953M 2:23:29.6+51:16.8+55.61%64.26%8.90%10.22%10:00:01.0
28172Horn, BobBothell, WA 40-4946M 2:24:12.5+51:59.7+56.39%63.94%8.44%9.77%10:00:01.0
29152Ewing, SherrardSeattle, WA 30-3935M 2:25:34.2+53:21.4+57.86%63.35%7.58%8.92%10:00:01.0
30222Steinborn, ChelseaSeattle, WA 20-2928F 2:27:20.5+55:07.7+59.78%62.58%6.45%7.81%10:00:01.0
31182Kranz, JillSeattle, WA 30-3930F 2:27:24.7+55:11.9+59.86%62.55%6.41%7.76%10:00:01.0
32158Goodfried, MichaelKirkland, WA 40-4943M 2:27:48.9+55:36.1+60.30%62.38%6.15%7.51%10:00:01.0
33185Lee, RebekahMarysville, WA 20-2924F 2:27:53.6+55:40.8+60.38%62.35%6.10%7.46%10:00:01.0
34215Sack, CoraBrookhaven, NY 30-3932F 2:28:53.1+56:40.3+61.46%61.94%5.47%6.84%10:00:01.0
35223Taylor, CraigBellevue, WA 30-3934M 2:29:29.9+57:17.1+62.12%61.68%5.08%6.46%10:00:01.0
36232Lee, Brian 50-5957M 2:30:55.2+58:42.4+63.66%61.10%4.18%5.57%10:00:01.0
37219Shelton, ChristySeattle, WA 40-4945F 2:31:29.8+59:17.0+64.29%60.87%3.82%5.21%10:00:01.0
38194Mcnary, RachelSeattle, WA 30-3934F 2:33:27.2+1:01:14.4+66.41%60.09%2.57%3.98%10:00:01.0
39231Yates, AmyPortland, OR 40-4944F 2:33:51.9+1:01:39.1+66.86%59.93%2.31%3.73%10:00:01.0
40184Lee, RachelMarysville, WA 20-2921F 2:34:48.4+1:02:35.6+67.88%59.57%1.71%3.14%10:00:01.0
41191Margolis, AmySeattle, WA 40-4944F 2:38:05.7+1:05:52.9+71.44%58.33%-0.37%1.08%10:00:01.0
42140Borland, KeithLake Stevens, WA 30-3931M 2:39:49.3+1:07:36.5+73.32%57.70%-1.47%0.00%10:00:01.0
43208Richey, DenaeRedmond 30-3937F 2:39:52.3+1:07:39.5+73.37%57.68%-1.50%-0.03%10:00:01.0
44227Ward, CharlesSammamish, WA 40-4947M 2:40:48.3+1:08:35.5+74.38%57.34%-2.09%-0.62%10:00:01.0
45174Hunter, MalloriePortland, OR 20-2929F 2:43:15.6+1:11:02.8+77.05%56.48%-3.65%-2.15%10:00:01.0
46187Lewis, DanielAuburn, WA 50-5955M 2:43:37.5+1:11:24.7+77.44%56.36%-3.88%-2.38%10:00:01.0
47171Hoeft, LindseyGermantown, WI 30-3932F 2:44:49.4+1:12:36.6+78.74%55.95%-4.64%-3.13%10:00:01.0
48229Wilkinson, NathanShoreline, WA 0-1912M 2:44:59.9+1:12:47.1+78.93%55.89%-4.76%-3.24%10:00:01.0
49198Neely, TaraOlympia, WA 30-3938F 2:45:37.5+1:13:24.7+79.61%55.68%-5.15%-3.63%10:00:01.0
50199Patterson, GreggOlympia, WA 40-4949M 2:45:39.2+1:13:26.4+79.64%55.67%-5.17%-3.65%10:00:01.0
51144Cook, KathleenPuyallup, WA 40-4946F 2:46:49.2+1:14:36.4+80.91%55.28%-5.91%-4.38%10:00:01.0
52221Steenmeyer, SabrinaGraham, WA 40-4948F 2:46:55.7+1:14:42.9+81.02%55.24%-5.98%-4.45%10:00:01.0
53159Graham, MelissaKenmore, WA 40-4944F 2:47:13.3+1:15:00.5+81.34%55.14%-6.17%-4.63%10:00:01.0
54173Hostetler, KellySeattle, WA 20-2926F 2:48:06.4+1:15:53.6+82.30%54.85%-6.73%-5.18%10:00:01.0
55176Hyde, LynnNorth Bend, WA 30-3930F 2:48:09.6+1:15:56.8+82.36%54.84%-6.76%-5.22%10:00:01.0
56165Haas, MaureenSeattle, WA 30-3935F 2:48:12.9+1:16:00.1+82.42%54.82%-6.80%-5.25%10:00:01.0
57224Thormodson, MitchFederal Way, WA 40-4945M 2:53:20.0+1:21:07.2+87.97%53.20%-10.05%-8.45%10:00:01.0
58149Duarte, AnastasiaShoreline, WA 40-4948F 2:53:40.2+1:21:27.4+88.34%53.10%-10.26%-8.66%10:00:01.0
59136Beaty, BillSNOHOMISH, WA 30-3934M 2:53:55.2+1:21:42.4+88.61%53.02%-10.42%-8.82%10:00:01.0
60188Loen, JeffKenmore 50-5959M 2:55:37.2+1:23:24.4+90.45%52.51%-11.50%-9.88%10:00:01.0
61189Loen, RobinKenmore 50-5955F 2:55:38.0+1:23:25.2+90.46%52.50%-11.51%-9.89%10:00:01.0
62147Dolezal, MartiSeattle, WA 50-5955F 2:55:40.1+1:23:27.3+90.50%52.49%-11.53%-9.92%10:00:01.0
63162Gries, KatieSeattle, WA 30-3933F 2:55:41.0+1:23:28.2+90.52%52.49%-11.54%-9.92%10:00:01.0
64175HURTIN, JERISNOHOMISH, WA 50-5950F 2:58:46.7+1:26:33.9+93.87%51.58%-13.50%-11.86%10:00:01.0
65134BARKER, JAMEYBothell, WA 40-4947M 2:58:47.4+1:26:34.6+93.89%51.58%-13.51%-11.87%10:00:01.0
66213Rowe, AliciaPortland, OR 30-3933F 2:59:28.5+1:27:15.7+94.63%51.38%-13.95%-12.30%10:00:01.0
67190Lyman, JeniferEverett, WA 40-4944F 3:01:21.3+1:29:08.5+96.67%50.85%-15.14%-13.47%10:00:01.0
68207Richards, BarbaraSpokane, WA 50-5951F 3:02:11.2+1:29:58.4+97.57%50.61%-15.67%-13.99%10:00:01.0
69220Sisson, SusanSeattle, WA 50-5957F 3:03:49.8+1:31:37.0+99.35%50.16%-16.71%-15.02%10:00:01.0
70225Walsh, ElizabethSeattle, WA 20-2929F 3:04:38.1+1:32:25.3+100.23%49.94%-17.22%-15.53%10:00:01.0
71230Wright, DwayneRenton, WA 50-5953M 3:04:38.8+1:32:26.0+100.24%49.94%-17.23%-15.53%10:00:01.0
72160Greene, AmyGlendale, CA 30-3936F 3:08:29.7+1:36:16.9+104.41%48.92%-19.67%-17.94%10:00:01.0
73161Greer, KathleenSpokane, WA 50-5954F 3:11:22.7+1:39:09.9+107.54%48.18%-21.50%-19.74%10:00:01.0
74206Reynolds, AlissaRenton, WA 20-2923F 3:12:17.8+1:40:05.0+108.53%47.95%-22.09%-20.32%10:00:01.0
75122Falken Joshua 40-4946M 3:17:20.0+1:45:07.2+114.00%46.73%-25.29%-23.47%10:00:01.0
76143Carrier, LindaEverett, WA 50-5953F 3:20:18.2+1:48:05.4+117.22%46.04%-27.17%-25.33%10:00:01.0
77163Gruescu, GeorgetaBothell, WA 40-4943F 3:21:09.4+1:48:56.6+118.14%45.84%-27.71%-25.86%10:00:01.0
78192Mathew, SanthoshRedmond, WA 50-5951M 3:23:04.9+1:50:52.1+120.23%45.41%-28.93%-27.07%10:00:01.0
79200Payne, StevenFederal Way, WA 50-5950M 3:27:25.1+1:55:12.3+124.93%44.46%-31.69%-29.78%10:00:01.0
80141Brauburger, AnaleaScottsdale, AZ 30-3938F 3:28:21.3+1:56:08.5+125.95%44.26%-32.28%-30.37%10:00:01.0
81197Murray, TonyaSpokane 40-4946F 3:38:51.6+2:06:38.8+137.34%42.13%-38.95%-36.94%10:00:01.0
82133Arnold, TravisSpokane, WA 30-3939M 3:38:59.2+2:06:46.4+137.48%42.11%-39.03%-37.02%10:00:01.0
83180King, MikeRedmond, WA 50-5950M 3:41:08.3+2:08:55.5+139.81%41.70%-40.40%-38.37%10:00:01.0
-146Crosbie, RussellSeattle, WA 30-3936M DNF-----10:00:01.0
-155Gaffney, RachelEverett, WA 40-4943F DNF-----10:00:01.0
-157Gobler, JessicaSeattle, WA 0-191F DNF-----10:00:01.0
-177Jacobsen, SaraSeattle, WA 0-1918F DNF-----10:00:01.0
-179Kelso, TorySeattle, WA 30-3933F DNF-----10:00:01.0
-183Larson, PeterPope Valley, CA 20-2925M DNF-----10:00:01.0
-204Powers, JennaSeattle, WA 30-3938F DNF-----10:00:01.0
-205Pullom, DjamalLynnwood, WA 40-4942M DNF-----10:00:01.0
-209Roberts, SarahSeattle, WA 30-3932F DNF-----10:00:01.0
-210Robinson, DianaBellingham, WA 40-4949F DNF-----10:00:01.0
-234Adrew Webster 20-2926M DNF-----10:30:01.4
  • Half Marathon Female - Overall
Place Bib Racer name Affiliation Category Age Gender Finish time
1142Brown, LeahSeattle, WA 30-3932F 2:11:24.2--100%22.70%21.83%10:00:01.0
2150Eames, EllenNewcastle, WA 30-3936F 2:21:20.7+9:56.5+7.57%92.97%16.86%15.92%10:00:01.0
3226Walsh, KaylaAndover, MA 20-2924F 2:23:11.0+11:46.8+8.96%91.77%15.77%14.83%10:00:01.0
4222Steinborn, ChelseaSeattle, WA 20-2928F 2:27:20.5+15:56.3+12.13%89.18%13.33%12.35%10:00:01.0
5182Kranz, JillSeattle, WA 30-3930F 2:27:24.7+16:00.5+12.18%89.14%13.29%12.31%10:00:01.0
6185Lee, RebekahMarysville, WA 20-2924F 2:27:53.6+16:29.4+12.55%88.85%13.00%12.02%10:00:01.0
7215Sack, CoraBrookhaven, NY 30-3932F 2:28:53.1+17:28.9+13.30%88.26%12.42%11.43%10:00:01.0
8219Shelton, ChristySeattle, WA 40-4945F 2:31:29.8+20:05.6+15.29%86.74%10.88%9.88%10:00:01.0
9194Mcnary, RachelSeattle, WA 30-3934F 2:33:27.2+22:03.0+16.78%85.63%9.73%8.72%10:00:01.0
10231Yates, AmyPortland, OR 40-4944F 2:33:51.9+22:27.7+17.09%85.40%9.49%8.47%10:00:01.0
11184Lee, RachelMarysville, WA 20-2921F 2:34:48.4+23:24.2+17.81%84.88%8.94%7.91%10:00:01.0
12191Margolis, AmySeattle, WA 40-4944F 2:38:05.7+26:41.5+20.31%83.12%7.00%5.96%10:00:01.0
13208Richey, DenaeRedmond 30-3937F 2:39:52.3+28:28.1+21.66%82.19%5.96%4.90%10:00:01.0
14174Hunter, MalloriePortland, OR 20-2929F 2:43:15.6+31:51.4+24.24%80.49%3.96%2.88%10:00:01.0
15171Hoeft, LindseyGermantown, WI 30-3932F 2:44:49.4+33:25.2+25.43%79.72%3.04%1.95%10:00:01.0
16198Neely, TaraOlympia, WA 30-3938F 2:45:37.5+34:13.3+26.04%79.34%2.57%1.48%10:00:01.0
17144Cook, KathleenPuyallup, WA 40-4946F 2:46:49.2+35:25.0+26.95%78.77%1.87%0.77%10:00:01.0
18221Steenmeyer, SabrinaGraham, WA 40-4948F 2:46:55.7+35:31.5+27.04%78.72%1.81%0.70%10:00:01.0
19159Graham, MelissaKenmore, WA 40-4944F 2:47:13.3+35:49.1+27.26%78.58%1.63%0.53%10:00:01.0
20173Hostetler, KellySeattle, WA 20-2926F 2:48:06.4+36:42.2+27.93%78.17%1.11%0.00%10:00:01.0
21176Hyde, LynnNorth Bend, WA 30-3930F 2:48:09.6+36:45.4+27.97%78.14%1.08%-0.03%10:00:01.0
22165Haas, MaureenSeattle, WA 30-3935F 2:48:12.9+36:48.7+28.01%78.12%1.05%-0.06%10:00:01.0
23149Duarte, AnastasiaShoreline, WA 40-4948F 2:53:40.2+42:16.0+32.17%75.66%-2.16%-3.31%10:00:01.0
24189Loen, RobinKenmore 50-5955F 2:55:38.0+44:13.8+33.66%74.82%-3.31%-4.48%10:00:01.0
25147Dolezal, MartiSeattle, WA 50-5955F 2:55:40.1+44:15.9+33.69%74.80%-3.33%-4.50%10:00:01.0
26162Gries, KatieSeattle, WA 30-3933F 2:55:41.0+44:16.8+33.70%74.80%-3.34%-4.51%10:00:01.0
27175HURTIN, JERISNOHOMISH, WA 50-5950F 2:58:46.7+47:22.5+36.05%73.50%-5.16%-6.35%10:00:01.0
28213Rowe, AliciaPortland, OR 30-3933F 2:59:28.5+48:04.3+36.58%73.22%-5.57%-6.76%10:00:01.0
29190Lyman, JeniferEverett, WA 40-4944F 3:01:21.3+49:57.1+38.01%72.46%-6.68%-7.88%10:00:01.0
30207Richards, BarbaraSpokane, WA 50-5951F 3:02:11.2+50:47.0+38.65%72.13%-7.17%-8.38%10:00:01.0
31220Sisson, SusanSeattle, WA 50-5957F 3:03:49.8+52:25.6+39.90%71.48%-8.14%-9.35%10:00:01.0
32225Walsh, ElizabethSeattle, WA 20-2929F 3:04:38.1+53:13.9+40.51%71.17%-8.61%-9.83%10:00:01.0
33160Greene, AmyGlendale, CA 30-3936F 3:08:29.7+57:05.5+43.45%69.71%-10.88%-12.13%10:00:01.0
34161Greer, KathleenSpokane, WA 50-5954F 3:11:22.7+59:58.5+45.64%68.66%-12.58%-13.84%10:00:01.0
35206Reynolds, AlissaRenton, WA 20-2923F 3:12:17.8+1:00:53.6+46.34%68.33%-13.12%-14.39%10:00:01.0
36143Carrier, LindaEverett, WA 50-5953F 3:20:18.2+1:08:54.0+52.43%65.60%-17.83%-19.15%10:00:01.0
37163Gruescu, GeorgetaBothell, WA 40-4943F 3:21:09.4+1:09:45.2+53.08%65.32%-18.33%-19.66%10:00:01.0
38141Brauburger, AnaleaScottsdale, AZ 30-3938F 3:28:21.3+1:16:57.1+58.56%63.07%-22.56%-23.94%10:00:01.0
39197Murray, TonyaSpokane 40-4946F 3:38:51.6+1:27:27.4+66.56%60.04%-28.74%-30.19%10:00:01.0
-155Gaffney, RachelEverett, WA 40-4943F DNF-----10:00:01.0
-157Gobler, JessicaSeattle, WA 0-191F DNF-----10:00:01.0
-177Jacobsen, SaraSeattle, WA 0-1918F DNF-----10:00:01.0
-179Kelso, TorySeattle, WA 30-3933F DNF-----10:00:01.0
-204Powers, JennaSeattle, WA 30-3938F DNF-----10:00:01.0
-209Roberts, SarahSeattle, WA 30-3932F DNF-----10:00:01.0
-210Robinson, DianaBellingham, WA 40-4949F DNF-----10:00:01.0
  • Half Marathon Female - 0-19
Place Bib Racer name Affiliation Category Age Gender Finish time
-157Gobler, JessicaSeattle, WA 0-191F DNF-----10:00:01.0
-177Jacobsen, SaraSeattle, WA 0-1918F DNF-----10:00:01.0
  • Half Marathon Female - 20-29
Place Bib Racer name Affiliation Category Age Gender Finish time
1226Walsh, KaylaAndover, MA 20-2924F 2:23:11.0--100%11.99%9.97%10:00:01.0
2222Steinborn, ChelseaSeattle, WA 20-2928F 2:27:20.5+4:09.5+2.90%97.18%9.43%7.35%10:00:01.0
3185Lee, RebekahMarysville, WA 20-2924F 2:27:53.6+4:42.6+3.29%96.82%9.10%7.00%10:00:01.0
4184Lee, RachelMarysville, WA 20-2921F 2:34:48.4+11:37.4+8.12%92.49%4.85%2.66%10:00:01.0
5174Hunter, MalloriePortland, OR 20-2929F 2:43:15.6+20:04.6+14.02%87.70%-0.35%-2.66%10:00:01.0
6173Hostetler, KellySeattle, WA 20-2926F 2:48:06.4+24:55.4+17.41%85.17%-3.33%-5.71%10:00:01.0
7225Walsh, ElizabethSeattle, WA 20-2929F 3:04:38.1+41:27.1+28.95%77.55%-13.49%-16.10%10:00:01.0
8206Reynolds, AlissaRenton, WA 20-2923F 3:12:17.8+49:06.8+34.30%74.46%-18.20%-20.92%10:00:01.0
  • Half Marathon Female - 30-39
Place Bib Racer name Affiliation Category Age Gender Finish time
1142Brown, LeahSeattle, WA 30-3932F 2:11:24.2--100%20.06%20.47%10:00:01.0
2150Eames, EllenNewcastle, WA 30-3936F 2:21:20.7+9:56.5+7.57%92.97%14.01%14.45%10:00:01.0
3182Kranz, JillSeattle, WA 30-3930F 2:27:24.7+16:00.5+12.18%89.14%10.32%10.78%10:00:01.0
4215Sack, CoraBrookhaven, NY 30-3932F 2:28:53.1+17:28.9+13.30%88.26%9.42%9.89%10:00:01.0
5194Mcnary, RachelSeattle, WA 30-3934F 2:33:27.2+22:03.0+16.78%85.63%6.64%7.12%10:00:01.0
6208Richey, DenaeRedmond 30-3937F 2:39:52.3+28:28.1+21.66%82.19%2.74%3.24%10:00:01.0
7171Hoeft, LindseyGermantown, WI 30-3932F 2:44:49.4+33:25.2+25.43%79.72%-0.27%0.24%10:00:01.0
8198Neely, TaraOlympia, WA 30-3938F 2:45:37.5+34:13.3+26.04%79.34%-0.76%-0.24%10:00:01.0
9176Hyde, LynnNorth Bend, WA 30-3930F 2:48:09.6+36:45.4+27.97%78.14%-2.30%-1.78%10:00:01.0
10165Haas, MaureenSeattle, WA 30-3935F 2:48:12.9+36:48.7+28.01%78.12%-2.34%-1.81%10:00:01.0
11162Gries, KatieSeattle, WA 30-3933F 2:55:41.0+44:16.8+33.70%74.80%-6.88%-6.33%10:00:01.0
12213Rowe, AliciaPortland, OR 30-3933F 2:59:28.5+48:04.3+36.58%73.22%-9.19%-8.63%10:00:01.0
13160Greene, AmyGlendale, CA 30-3936F 3:08:29.7+57:05.5+43.45%69.71%-14.68%-14.08%10:00:01.0
14141Brauburger, AnaleaScottsdale, AZ 30-3938F 3:28:21.3+1:16:57.1+58.56%63.07%-26.76%-26.10%10:00:01.0
-179Kelso, TorySeattle, WA 30-3933F DNF-----10:00:01.0
-204Powers, JennaSeattle, WA 30-3938F DNF-----10:00:01.0
-209Roberts, SarahSeattle, WA 30-3932F DNF-----10:00:01.0
  • Half Marathon Female - 40-49
Place Bib Racer name Affiliation Category Age Gender Finish time
1219Shelton, ChristySeattle, WA 40-4945F 2:31:29.8--100%12.91%9.32%10:00:01.0
2231Yates, AmyPortland, OR 40-4944F 2:33:51.9+2:22.1+1.56%98.46%11.54%7.91%10:00:01.0
3191Margolis, AmySeattle, WA 40-4944F 2:38:05.7+6:35.9+4.36%95.83%9.11%5.37%10:00:01.0
4144Cook, KathleenPuyallup, WA 40-4946F 2:46:49.2+15:19.4+10.11%90.81%4.10%0.15%10:00:01.0
5221Steenmeyer, SabrinaGraham, WA 40-4948F 2:46:55.7+15:25.9+10.19%90.76%4.03%0.09%10:00:01.0
6159Graham, MelissaKenmore, WA 40-4944F 2:47:13.3+15:43.5+10.38%90.60%3.87%-0.09%10:00:01.0
7149Duarte, AnastasiaShoreline, WA 40-4948F 2:53:40.2+22:10.4+14.64%87.23%0.16%-3.95%10:00:01.0
8190Lyman, JeniferEverett, WA 40-4944F 3:01:21.3+29:51.5+19.71%83.54%-4.26%-8.55%10:00:01.0
9163Gruescu, GeorgetaBothell, WA 40-4943F 3:21:09.4+49:39.6+32.78%75.31%-15.64%-20.40%10:00:01.0
10197Murray, TonyaSpokane 40-4946F 3:38:51.6+1:07:21.8+44.47%69.22%-25.82%-31.00%10:00:01.0
-155Gaffney, RachelEverett, WA 40-4943F DNF-----10:00:01.0
-210Robinson, DianaBellingham, WA 40-4949F DNF-----10:00:01.0
  • Half Marathon Female - 50-59
Place Bib Racer name Affiliation Category Age Gender Finish time
1189Loen, RobinKenmore 50-5955F 2:55:38.0--100%4.53%3.60%10:00:01.0
2147Dolezal, MartiSeattle, WA 50-5955F 2:55:40.1+0:02.1+0.02%99.98%4.51%3.58%10:00:01.0
3175HURTIN, JERISNOHOMISH, WA 50-5950F 2:58:46.7+3:08.7+1.79%98.24%2.82%1.87%10:00:01.0
4207Richards, BarbaraSpokane, WA 50-5951F 3:02:11.2+6:33.2+3.73%96.40%0.97%0.00%10:00:01.0
5220Sisson, SusanSeattle, WA 50-5957F 3:03:49.8+8:11.8+4.67%95.54%0.08%-0.90%10:00:01.0
6161Greer, KathleenSpokane, WA 50-5954F 3:11:22.7+15:44.7+8.96%91.77%-4.03%-5.05%10:00:01.0
7143Carrier, LindaEverett, WA 50-5953F 3:20:18.2+24:40.2+14.05%87.68%-8.88%-9.94%10:00:01.0
  • Half Marathon Male - Overall
Place Bib Racer name Affiliation Category Age Gender Finish time
1148Doyon, TahomaSeattle, WA 30-3931M 1:32:12.8--100%37.03%35.23%10:00:01.0
2166Hall, KevinIssaquah, WA 20-2928M 1:34:37.9+2:25.1+2.62%97.44%35.38%33.53%10:00:01.0
3170Harsha-Strong, AlexSeattle, WA 30-3930M 1:40:22.5+8:09.7+8.85%91.87%31.45%29.50%10:00:01.0
4156Gendro, JonnyFall City, WA 0-1918M 1:42:05.9+9:53.1+10.72%90.32%30.28%28.28%10:00:01.0
5151Eckel, TonyBothell, WA 40-4948M 1:42:46.5+10:33.7+11.45%89.72%29.82%27.81%10:00:01.0
6212Romano, JoeTacoma, WA 30-3935M 1:47:35.9+15:23.1+16.68%85.70%26.52%24.42%10:00:01.0
7186Lemay, KeithBellevue, WA 20-2929M 1:53:42.9+21:30.1+23.32%81.09%22.34%20.13%10:00:01.0
8211Rodakowski, JohnOlympia, WA 50-5950M 1:53:56.5+21:43.7+23.56%80.93%22.19%19.97%10:00:01.0
9181Kirsch, NickSeattle, WA 30-3937M 1:57:38.7+25:25.9+27.58%78.38%19.66%17.36%10:00:01.0
10217Schwartz, MarkSanta Clara, CA 20-2927M 1:57:55.2+25:42.4+27.88%78.20%19.47%17.17%10:00:01.0
11154Flood, MikeIssaquah, WA 40-4940M 1:58:48.6+26:35.8+28.84%77.61%18.87%16.55%10:00:01.0
12202Peterka, ZethShoreline, WA 0-1916M 2:04:39.8+32:27.0+35.19%73.97%14.87%12.44%10:00:01.0
13178Kelly-Stallings, DannySeattle, WA 30-3933M 2:09:20.4+37:07.6+40.26%71.30%11.67%9.15%10:00:01.0
14139Boehnke, MichaelKennewick, WA 40-4949M 2:10:39.1+38:26.3+41.68%70.58%10.78%8.23%10:00:01.0
15216Schmidt, JeffTacoma, WA 40-4941M 2:12:08.0+39:55.2+43.29%69.79%9.77%7.19%10:00:01.0
16153Fletcher, BarnabyPuyallup, WA 30-3930M 2:13:46.8+41:34.0+45.08%68.93%8.64%6.03%10:00:01.0
17164Guy, CarsonSeattle, WA 30-3930M 2:16:19.1+44:06.3+47.83%67.65%6.91%4.25%10:00:01.0
18138Blomgren, PeterIssaquah, WA 40-4942M 2:18:07.9+45:55.1+49.80%66.76%5.67%2.97%10:00:01.0
19196Moore, DavidTacoma, WA 40-4949M 2:18:46.8+46:34.0+50.50%66.45%5.23%2.52%10:00:01.0
20168Hamblin, DavidArlington, VA 30-3936M 2:20:43.1+48:30.3+52.60%65.53%3.90%1.16%10:00:01.0
21233Jason Miur 40-4941M 2:21:29.5+49:16.7+53.44%65.17%3.38%0.61%10:00:01.0
22135Barnett, AlexanderMercer Island, WA 40-4947M 2:22:01.2+49:48.4+54.01%64.93%3.02%0.24%10:00:01.0
23235Tom Vail 50-5951M 2:22:42.8+50:30.0+54.76%64.61%2.54%-0.24%10:00:01.0
24228Warrington, SteveSpokane, WA 50-5953M 2:23:29.6+51:16.8+55.61%64.26%2.01%-0.79%10:00:01.0
25172Horn, BobBothell, WA 40-4946M 2:24:12.5+51:59.7+56.39%63.94%1.52%-1.29%10:00:01.0
26152Ewing, SherrardSeattle, WA 30-3935M 2:25:34.2+53:21.4+57.86%63.35%0.59%-2.25%10:00:01.0
27158Goodfried, MichaelKirkland, WA 40-4943M 2:27:48.9+55:36.1+60.30%62.38%-0.94%-3.83%10:00:01.0
28223Taylor, CraigBellevue, WA 30-3934M 2:29:29.9+57:17.1+62.12%61.68%-2.09%-5.01%10:00:01.0
29232Lee, Brian 50-5957M 2:30:55.2+58:42.4+63.66%61.10%-3.06%-6.01%10:00:01.0
30140Borland, KeithLake Stevens, WA 30-3931M 2:39:49.3+1:07:36.5+73.32%57.70%-9.14%-12.26%10:00:01.0
31227Ward, CharlesSammamish, WA 40-4947M 2:40:48.3+1:08:35.5+74.38%57.34%-9.81%-12.95%10:00:01.0
32187Lewis, DanielAuburn, WA 50-5955M 2:43:37.5+1:11:24.7+77.44%56.36%-11.74%-14.93%10:00:01.0
33229Wilkinson, NathanShoreline, WA 0-1912M 2:44:59.9+1:12:47.1+78.93%55.89%-12.68%-15.90%10:00:01.0
34199Patterson, GreggOlympia, WA 40-4949M 2:45:39.2+1:13:26.4+79.64%55.67%-13.12%-16.36%10:00:01.0
35224Thormodson, MitchFederal Way, WA 40-4945M 2:53:20.0+1:21:07.2+87.97%53.20%-18.37%-21.75%10:00:01.0
36136Beaty, BillSNOHOMISH, WA 30-3934M 2:53:55.2+1:21:42.4+88.61%53.02%-18.77%-22.16%10:00:01.0
37188Loen, JeffKenmore 50-5959M 2:55:37.2+1:23:24.4+90.45%52.51%-19.93%-23.36%10:00:01.0
38134BARKER, JAMEYBothell, WA 40-4947M 2:58:47.4+1:26:34.6+93.89%51.58%-22.10%-25.58%10:00:01.0
39230Wright, DwayneRenton, WA 50-5953M 3:04:38.8+1:32:26.0+100.24%49.94%-26.09%-29.70%10:00:01.0
40122Falken Joshua 40-4946M 3:17:20.0+1:45:07.2+114.00%46.73%-34.76%-38.61%10:00:01.0
41192Mathew, SanthoshRedmond, WA 50-5951M 3:23:04.9+1:50:52.1+120.23%45.41%-38.68%-42.65%10:00:01.0
42200Payne, StevenFederal Way, WA 50-5950M 3:27:25.1+1:55:12.3+124.93%44.46%-41.65%-45.69%10:00:01.0
43133Arnold, TravisSpokane, WA 30-3939M 3:38:59.2+2:06:46.4+137.48%42.11%-49.55%-53.82%10:00:01.0
44180King, MikeRedmond, WA 50-5950M 3:41:08.3+2:08:55.5+139.81%41.70%-51.01%-55.33%10:00:01.0
-146Crosbie, RussellSeattle, WA 30-3936M DNF-----10:00:01.0
-183Larson, PeterPope Valley, CA 20-2925M DNF-----10:00:01.0
-205Pullom, DjamalLynnwood, WA 40-4942M DNF-----10:00:01.0
-234Adrew Webster 20-2926M DNF-----10:30:01.4
  • Half Marathon Male - 0-19
Place Bib Racer name Affiliation Category Age Gender Finish time
1156Gendro, JonnyFall City, WA 0-1918M 1:42:05.9--100%21.82%18.10%10:00:01.0
2202Peterka, ZethShoreline, WA 0-1916M 2:04:39.8+22:33.9+22.10%81.90%4.54%0.00%10:00:01.0
3229Wilkinson, NathanShoreline, WA 0-1912M 2:44:59.9+1:02:54.0+61.61%61.88%-26.35%-32.36%10:00:01.0
  • Half Marathon Male - 20-29
Place Bib Racer name Affiliation Category Age Gender Finish time
1166Hall, KevinIssaquah, WA 20-2928M 1:34:37.9--100%12.99%16.78%10:00:01.0
2186Lemay, KeithBellevue, WA 20-2929M 1:53:42.9+19:05.0+20.17%83.22%-4.56%0.00%10:00:01.0
3217Schwartz, MarkSanta Clara, CA 20-2927M 1:57:55.2+23:17.3+24.61%80.25%-8.43%-3.70%10:00:01.0
-183Larson, PeterPope Valley, CA 20-2925M DNF-----10:00:01.0
-234Adrew Webster 20-2926M DNF-----10:30:01.4
  • Half Marathon Male - 30-39
Place Bib Racer name Affiliation Category Age Gender Finish time
1148Doyon, TahomaSeattle, WA 30-3931M 1:32:12.8--100%33.61%32.35%10:00:01.0
2170Harsha-Strong, AlexSeattle, WA 30-3930M 1:40:22.5+8:09.7+8.85%91.87%27.74%26.37%10:00:01.0
3212Romano, JoeTacoma, WA 30-3935M 1:47:35.9+15:23.1+16.68%85.70%22.54%21.07%10:00:01.0
4181Kirsch, NickSeattle, WA 30-3937M 1:57:38.7+25:25.9+27.58%78.38%15.31%13.70%10:00:01.0
5178Kelly-Stallings, DannySeattle, WA 30-3933M 2:09:20.4+37:07.6+40.26%71.30%6.89%5.12%10:00:01.0
6153Fletcher, BarnabyPuyallup, WA 30-3930M 2:13:46.8+41:34.0+45.08%68.93%3.69%1.86%10:00:01.0
7164Guy, CarsonSeattle, WA 30-3930M 2:16:19.1+44:06.3+47.83%67.65%1.86%0.00%10:00:01.0
8168Hamblin, DavidArlington, VA 30-3936M 2:20:43.1+48:30.3+52.60%65.53%-1.30%-3.23%10:00:01.0
9152Ewing, SherrardSeattle, WA 30-3935M 2:25:34.2+53:21.4+57.86%63.35%-4.80%-6.79%10:00:01.0
10223Taylor, CraigBellevue, WA 30-3934M 2:29:29.9+57:17.1+62.12%61.68%-7.63%-9.67%10:00:01.0
11140Borland, KeithLake Stevens, WA 30-3931M 2:39:49.3+1:07:36.5+73.32%57.70%-15.06%-17.24%10:00:01.0
12136Beaty, BillSNOHOMISH, WA 30-3934M 2:53:55.2+1:21:42.4+88.61%53.02%-25.21%-27.58%10:00:01.0
13133Arnold, TravisSpokane, WA 30-3939M 3:38:59.2+2:06:46.4+137.48%42.11%-57.65%-60.64%10:00:01.0
-146Crosbie, RussellSeattle, WA 30-3936M DNF-----10:00:01.0
  • Half Marathon Male - 40-49
Place Bib Racer name Affiliation Category Age Gender Finish time
1151Eckel, TonyBothell, WA 40-4948M 1:42:46.5--100%30.33%27.63%10:00:01.0
2154Flood, MikeIssaquah, WA 40-4940M 1:58:48.6+16:02.1+15.60%86.50%19.46%16.34%10:00:01.0
3139Boehnke, MichaelKennewick, WA 40-4949M 2:10:39.1+27:52.6+27.12%78.66%11.43%8.00%10:00:01.0
4216Schmidt, JeffTacoma, WA 40-4941M 2:12:08.0+29:21.5+28.57%77.78%10.43%6.96%10:00:01.0
5138Blomgren, PeterIssaquah, WA 40-4942M 2:18:07.9+35:21.4+34.40%74.40%6.36%2.74%10:00:01.0
6196Moore, DavidTacoma, WA 40-4949M 2:18:46.8+36:00.3+35.03%74.06%5.92%2.28%10:00:01.0
7233Jason Miur 40-4941M 2:21:29.5+38:43.0+37.67%72.64%4.08%0.37%10:00:01.0
8135Barnett, AlexanderMercer Island, WA 40-4947M 2:22:01.2+39:14.7+38.19%72.37%3.73%0.00%10:00:01.0
9172Horn, BobBothell, WA 40-4946M 2:24:12.5+41:26.0+40.31%71.27%2.24%-1.54%10:00:01.0
10158Goodfried, MichaelKirkland, WA 40-4943M 2:27:48.9+45:02.4+43.82%69.53%-0.20%-4.08%10:00:01.0
11227Ward, CharlesSammamish, WA 40-4947M 2:40:48.3+58:01.8+56.46%63.91%-9.01%-13.23%10:00:01.0
12199Patterson, GreggOlympia, WA 40-4949M 2:45:39.2+1:02:52.7+61.18%62.04%-12.30%-16.64%10:00:01.0
13224Thormodson, MitchFederal Way, WA 40-4945M 2:53:20.0+1:10:33.5+68.65%59.29%-17.50%-22.05%10:00:01.0
14134BARKER, JAMEYBothell, WA 40-4947M 2:58:47.4+1:16:00.9+73.96%57.48%-21.20%-25.89%10:00:01.0
15122Falken Joshua 40-4946M 3:17:20.0+1:34:33.5+92.01%52.08%-33.77%-38.95%10:00:01.0
-205Pullom, DjamalLynnwood, WA 40-4942M DNF-----10:00:01.0
  • Half Marathon Male - 50-59
Place Bib Racer name Affiliation Category Age Gender Finish time
1211Rodakowski, JohnOlympia, WA 50-5950M 1:53:56.5--100%33.23%32.83%10:00:01.0
2235Tom Vail 50-5951M 2:22:42.8+28:46.3+25.25%79.84%16.38%15.86%10:00:01.0
3228Warrington, SteveSpokane, WA 50-5953M 2:23:29.6+29:33.1+25.94%79.41%15.92%15.40%10:00:01.0
4232Lee, Brian 50-5957M 2:30:55.2+36:58.7+32.45%75.50%11.57%11.03%10:00:01.0
5187Lewis, DanielAuburn, WA 50-5955M 2:43:37.5+49:41.0+43.60%69.64%4.12%3.54%10:00:01.0
6188Loen, JeffKenmore 50-5959M 2:55:37.2+1:01:40.7+54.13%64.88%-2.91%-3.54%10:00:01.0
7230Wright, DwayneRenton, WA 50-5953M 3:04:38.8+1:10:42.3+62.05%61.71%-8.20%-8.86%10:00:01.0
8192Mathew, SanthoshRedmond, WA 50-5951M 3:23:04.9+1:29:08.4+78.23%56.11%-19.00%-19.73%10:00:01.0
9200Payne, StevenFederal Way, WA 50-5950M 3:27:25.1+1:33:28.6+82.04%54.93%-21.54%-22.28%10:00:01.0
10180King, MikeRedmond, WA 50-5950M 3:41:08.3+1:47:11.8+94.08%51.53%-29.58%-30.37%10:00:01.0